createdAt,value
2019-03-06T00:01:42.550Z,1.57
2019-03-06T00:04:12.010Z,1.33
2019-03-06T00:06:41.449Z,1.60
2019-03-06T00:09:11.266Z,1.97
2019-03-06T00:11:40.789Z,1.90
2019-03-06T00:14:10.311Z,1.50
2019-03-06T00:16:39.792Z,1.80
2019-03-06T00:19:09.544Z,1.50
2019-03-06T00:21:39.032Z,1.60
2019-03-06T00:24:08.443Z,1.30
2019-03-06T00:26:37.999Z,1.77
2019-03-06T00:29:07.426Z,1.73
2019-03-06T00:31:37.211Z,1.70
2019-03-06T00:34:06.646Z,1.60
2019-03-06T00:36:36.700Z,1.50
2019-03-06T00:39:08.582Z,1.60
2019-03-06T00:41:40.884Z,1.20
2019-03-06T00:44:10.399Z,1.40
2019-03-06T00:46:39.847Z,1.43
2019-03-06T00:49:09.260Z,1.43
2019-03-06T00:51:38.706Z,1.73
2019-03-06T00:54:08.421Z,1.87
2019-03-06T00:56:37.844Z,1.90
2019-03-06T00:59:07.265Z,1.80
2019-03-06T01:01:36.740Z,1.40
2019-03-06T01:04:06.475Z,1.57
2019-03-06T01:06:36.016Z,1.80
2019-03-06T01:09:07.337Z,1.90
2019-03-06T01:11:36.833Z,1.60
2019-03-06T01:14:06.253Z,1.97
2019-03-06T01:16:35.720Z,1.37
2019-03-06T01:19:05.185Z,1.70
2019-03-06T01:21:34.636Z,1.90
2019-03-06T01:24:04.063Z,1.60
2019-03-06T01:26:33.506Z,1.40
2019-03-06T01:29:02.932Z,1.77
2019-03-06T01:31:32.490Z,1.63
2019-03-06T01:34:39.489Z,1.80
2019-03-06T01:37:30.746Z,1.50
2019-03-06T01:40:19.121Z,1.70
2019-03-06T01:42:53.184Z,1.43
2019-03-06T01:45:22.604Z,1.40
2019-03-06T01:47:52.154Z,1.30
2019-03-06T01:50:21.632Z,1.80
2019-03-06T01:52:51.272Z,1.50
2019-03-06T01:55:20.690Z,1.57
2019-03-06T01:57:50.124Z,1.40
2019-03-06T02:00:19.971Z,1.60
2019-03-06T02:02:49.519Z,1.53
2019-03-06T02:05:18.951Z,2.23
2019-03-06T02:07:48.375Z,1.73
2019-03-06T02:10:18.089Z,2.40
2019-03-06T02:12:47.554Z,1.47
2019-03-06T02:15:17.792Z,1.80
2019-03-06T02:17:47.242Z,1.80
2019-03-06T02:20:17.259Z,2.00
2019-03-06T02:22:47.189Z,1.50
2019-03-06T02:25:16.596Z,1.33
2019-03-06T02:27:46.253Z,2.37
2019-03-06T02:30:18.493Z,2.00
2019-03-06T02:32:47.957Z,1.70
2019-03-06T02:35:17.590Z,1.67
2019-03-06T02:37:47.008Z,1.77
2019-03-06T02:40:16.435Z,1.87
2019-03-06T02:42:45.855Z,2.13
2019-03-06T02:45:16.288Z,2.30
2019-03-06T02:47:45.694Z,1.53
2019-03-06T02:50:15.557Z,2.17
2019-03-06T02:52:45.275Z,2.00
2019-03-06T02:55:15.269Z,2.50
2019-03-06T02:57:51.322Z,2.10
2019-03-06T03:00:46.657Z,2.53
2019-03-06T03:03:28.049Z,2.77
2019-03-06T03:06:04.510Z,2.63
2019-03-06T03:08:34.034Z,3.53
2019-03-06T03:11:03.945Z,2.67
2019-03-06T03:13:33.421Z,2.43
2019-03-06T03:16:02.840Z,2.70
2019-03-06T03:18:32.255Z,2.83
2019-03-06T03:21:01.720Z,2.93
2019-03-06T03:23:31.124Z,3.00
2019-03-06T03:26:00.579Z,3.50
2019-03-06T03:28:30.002Z,3.13
2019-03-06T03:30:59.454Z,3.30
2019-03-06T03:33:28.841Z,3.30
2019-03-06T03:35:58.291Z,3.27
2019-03-06T03:38:27.733Z,4.13
2019-03-06T03:40:57.279Z,3.90
2019-03-06T03:43:26.684Z,3.63
2019-03-06T03:45:56.317Z,4.00
2019-03-06T03:48:25.786Z,4.17
2019-03-06T03:50:55.301Z,3.90
2019-03-06T03:53:24.753Z,4.17
2019-03-06T03:55:54.195Z,4.40
2019-03-06T03:58:23.714Z,4.73
2019-03-06T04:00:53.154Z,4.43
2019-03-06T04:03:22.558Z,4.60
2019-03-06T04:05:51.989Z,4.47
2019-03-06T04:08:21.407Z,4.93
2019-03-06T04:10:51.035Z,4.40
2019-03-06T04:13:20.466Z,5.00
2019-03-06T04:15:49.897Z,4.60
2019-03-06T04:18:19.308Z,4.90
2019-03-06T04:20:48.760Z,5.13
2019-03-06T04:23:18.441Z,5.30
2019-03-06T04:25:47.890Z,5.43
2019-03-06T04:28:17.310Z,5.07
2019-03-06T04:30:46.748Z,5.23
2019-03-06T04:33:16.160Z,5.27
2019-03-06T04:35:45.908Z,5.80
2019-03-06T04:38:15.314Z,5.17
2019-03-06T04:40:44.735Z,5.10
2019-03-06T04:43:14.151Z,5.30
2019-03-06T04:45:45.066Z,4.87
2019-03-06T04:48:14.669Z,5.30
2019-03-06T04:50:44.137Z,4.90
2019-03-06T04:53:13.561Z,5.67
2019-03-06T04:55:43.005Z,4.97
2019-03-06T04:58:12.420Z,5.80
2019-03-06T05:00:41.845Z,4.50
2019-03-06T05:03:11.265Z,4.77
2019-03-06T05:05:40.732Z,4.50
2019-03-06T05:08:10.210Z,4.90
2019-03-06T05:10:39.660Z,4.87
2019-03-06T05:13:09.113Z,4.40
2019-03-06T05:15:38.561Z,4.20
2019-03-06T05:18:26.927Z,4.60
2019-03-06T05:20:56.363Z,4.73
2019-03-06T05:23:25.833Z,4.57
2019-03-06T05:25:55.284Z,4.40
2019-03-06T05:28:24.701Z,4.13
2019-03-06T05:30:54.116Z,4.50
2019-03-06T05:33:23.926Z,4.80
2019-03-06T05:36:37.564Z,4.27
2019-03-06T05:39:11.886Z,3.77
2019-03-06T05:41:41.568Z,4.10
2019-03-06T05:44:10.996Z,3.67
2019-03-06T05:46:40.467Z,4.27
2019-03-06T05:49:10.152Z,3.57
2019-03-06T05:51:39.592Z,3.83
2019-03-06T05:54:09.018Z,3.60
2019-03-06T05:56:38.462Z,3.97
2019-03-06T05:59:07.874Z,3.93
2019-03-06T06:01:37.319Z,4.07
2019-03-06T06:04:06.848Z,3.90
2019-03-06T06:06:36.266Z,4.23
2019-03-06T06:09:07.087Z,3.90
2019-03-06T06:11:36.510Z,4.13
2019-03-06T06:14:06.053Z,3.97
2019-03-06T06:16:35.473Z,3.97
2019-03-06T06:19:04.924Z,4.60
2019-03-06T06:21:51.809Z,3.70
2019-03-06T06:24:24.170Z,4.73
2019-03-06T06:26:53.585Z,4.53
2019-03-06T06:29:23.021Z,3.90
2019-03-06T06:31:52.429Z,3.90
2019-03-06T06:34:21.885Z,3.80
2019-03-06T06:36:51.313Z,3.50
2019-03-06T06:39:20.766Z,4.10
2019-03-06T06:41:50.168Z,3.90
2019-03-06T06:44:19.632Z,4.17
2019-03-06T06:46:49.144Z,4.30
2019-03-06T06:49:18.582Z,4.73
2019-03-06T06:52:25.339Z,4.60
2019-03-06T06:55:31.046Z,4.87
2019-03-06T06:58:57.167Z,5.47
2019-03-06T07:01:47.473Z,5.50
2019-03-06T07:05:01.580Z,4.80
2019-03-06T07:07:48.577Z,3.33
2019-03-06T07:10:40.425Z,4.57
2019-03-06T07:13:24.626Z,3.83
2019-03-06T07:16:07.688Z,4.33
2019-03-06T07:18:54.688Z,3.93
2019-03-06T07:21:55.213Z,3.70
2019-03-06T07:24:52.428Z,4.57
2019-03-06T07:27:43.577Z,4.70
2019-03-06T07:30:55.694Z,4.20
2019-03-06T07:33:46.981Z,3.70
2019-03-06T07:36:34.247Z,3.67
2019-03-06T07:39:22.825Z,3.80
2019-03-06T07:42:14.227Z,3.53
2019-03-06T07:45:39.225Z,3.13
2019-03-06T07:48:19.167Z,3.13
2019-03-06T07:51:00.969Z,3.03
2019-03-06T07:54:11.190Z,3.10
2019-03-06T07:56:44.593Z,2.60
2019-03-06T07:59:14.019Z,2.43
2019-03-06T08:01:47.009Z,2.67
2019-03-06T08:04:17.932Z,2.80
2019-03-06T08:06:51.241Z,2.97
2019-03-06T08:09:21.140Z,2.77
2019-03-06T08:12:05.202Z,2.67
2019-03-06T08:14:56.731Z,2.80
2019-03-06T08:17:31.543Z,2.40
2019-03-06T08:20:19.038Z,2.27
2019-03-06T08:23:10.167Z,2.90
2019-03-06T08:25:44.605Z,2.67
2019-03-06T08:28:14.802Z,2.40
2019-03-06T08:30:49.169Z,3.23
2019-03-06T08:33:18.743Z,2.70
2019-03-06T08:35:48.246Z,2.37
2019-03-06T08:38:17.709Z,2.00
2019-03-06T08:40:47.153Z,2.27
2019-03-06T08:43:16.571Z,2.10
2019-03-06T08:45:59.649Z,2.00
2019-03-06T08:48:41.720Z,2.77
2019-03-06T08:51:30.168Z,2.53
2019-03-06T08:54:17.334Z,2.10
2019-03-06T08:57:14.973Z,1.80
2019-03-06T08:59:54.256Z,1.63
2019-03-06T09:02:48.261Z,2.20
2019-03-06T09:05:25.516Z,2.37
2019-03-06T09:08:18.514Z,1.80
2019-03-06T09:11:06.892Z,1.60
2019-03-06T09:13:54.193Z,2.10
2019-03-06T09:16:48.627Z,1.80
2019-03-06T09:19:30.949Z,1.40
2019-03-06T09:22:14.130Z,1.90
2019-03-06T09:25:08.640Z,1.40
2019-03-06T09:27:51.309Z,2.17
2019-03-06T09:30:48.764Z,1.70
2019-03-06T09:33:40.126Z,1.23
2019-03-06T09:36:22.710Z,2.00
2019-03-06T09:39:16.146Z,1.43
2019-03-06T09:42:03.739Z,1.43
2019-03-06T09:44:55.242Z,1.50
2019-03-06T09:47:39.169Z,1.57
2019-03-06T09:50:25.579Z,2.10
2019-03-06T09:53:11.701Z,1.43
2019-03-06T09:55:59.436Z,1.77
2019-03-06T09:58:35.244Z,1.33
2019-03-06T10:01:26.761Z,1.27
2019-03-06T10:04:24.105Z,1.13
2019-03-06T10:07:05.023Z,1.23
2019-03-06T10:09:58.840Z,2.00
2019-03-06T10:12:29.740Z,1.30
2019-03-06T10:15:27.244Z,1.60
2019-03-06T10:18:03.559Z,1.10
2019-03-06T10:20:32.957Z,1.10
2019-03-06T10:23:02.400Z,1.17
2019-03-06T10:25:32.305Z,1.13
2019-03-06T10:28:06.230Z,1.47
2019-03-06T10:30:33.581Z,1.33
2019-03-06T10:33:03.013Z,1.10
2019-03-06T10:35:32.519Z,1.20
2019-03-06T10:38:02.234Z,1.00
2019-03-06T10:40:31.628Z,1.37
2019-03-06T10:43:01.378Z,1.20
2019-03-06T10:45:30.805Z,0.97
2019-03-06T10:48:00.265Z,1.50
2019-03-06T10:50:30.771Z,1.20
2019-03-06T10:53:00.879Z,0.93
2019-03-06T10:55:30.411Z,1.00
2019-03-06T10:58:00.068Z,1.20
2019-03-06T11:00:32.064Z,1.00
2019-03-06T11:03:01.749Z,1.10
2019-03-06T11:05:32.950Z,1.30
2019-03-06T11:08:02.843Z,1.43
2019-03-06T11:10:33.984Z,1.10
2019-03-06T11:13:08.855Z,0.97
2019-03-06T11:15:38.630Z,1.30
2019-03-06T11:18:08.737Z,1.17
2019-03-06T11:20:40.620Z,1.20
2019-03-06T11:23:10.021Z,1.10
2019-03-06T11:25:40.621Z,1.10
2019-03-06T11:28:11.300Z,0.97
2019-03-06T11:30:45.465Z,1.10
2019-03-06T11:33:15.431Z,1.60
2019-03-06T11:35:45.275Z,1.00
2019-03-06T11:38:14.989Z,1.70
2019-03-06T11:40:44.431Z,1.30
2019-03-06T11:43:14.045Z,1.30
2019-03-06T11:45:43.984Z,1.20
2019-03-06T11:48:14.315Z,1.30
2019-03-06T11:50:44.318Z,1.40
2019-03-06T11:53:13.933Z,1.70
2019-03-06T11:55:43.371Z,1.03
2019-03-06T11:58:15.203Z,1.40
2019-03-06T12:00:45.445Z,1.37
2019-03-06T12:03:16.956Z,1.13
2019-03-06T12:05:46.857Z,1.27
2019-03-06T12:08:17.126Z,1.50
2019-03-06T12:10:46.701Z,1.50
2019-03-06T12:13:17.192Z,1.60
2019-03-06T12:15:51.010Z,1.43
2019-03-06T12:18:22.472Z,1.27
2019-03-06T12:20:52.109Z,1.20
2019-03-06T12:23:22.542Z,1.50
2019-03-06T12:25:52.082Z,1.40
2019-03-06T12:28:21.496Z,1.60
2019-03-06T12:30:51.080Z,2.17
2019-03-06T12:33:22.948Z,2.00
2019-03-06T12:35:52.811Z,1.40
2019-03-06T12:38:22.443Z,1.57
2019-03-06T12:40:52.195Z,1.60
2019-03-06T12:43:21.698Z,1.50
2019-03-06T12:46:22.964Z,1.60
2019-03-06T12:48:54.624Z,1.40
2019-03-06T12:51:24.643Z,1.40
2019-03-06T12:53:53.999Z,1.70
2019-03-06T12:56:23.441Z,1.67
2019-03-06T12:58:52.806Z,2.20
2019-03-06T13:01:22.248Z,1.40
2019-03-06T13:03:51.683Z,1.70
2019-03-06T13:06:24.767Z,1.50
2019-03-06T13:08:52.654Z,1.60
2019-03-06T13:11:22.148Z,1.70
2019-03-06T13:13:51.644Z,1.50
2019-03-06T13:16:21.088Z,1.70
2019-03-06T13:18:50.501Z,2.00
2019-03-06T13:21:20.278Z,1.77
2019-03-06T13:23:49.710Z,1.60
2019-03-06T13:26:19.152Z,1.57
2019-03-06T13:28:57.146Z,1.57
2019-03-06T13:31:19.710Z,1.50
2019-03-06T13:34:23.373Z,1.77
2019-03-06T13:36:52.820Z,1.90
2019-03-06T13:39:22.228Z,2.70
2019-03-06T13:41:51.865Z,1.67
2019-03-06T13:44:21.283Z,1.77
2019-03-06T13:46:50.862Z,1.83
2019-03-06T13:49:20.276Z,1.70
2019-03-06T13:51:49.748Z,1.70
2019-03-06T13:54:19.321Z,1.60
2019-03-06T13:56:48.943Z,1.70
2019-03-06T13:59:18.526Z,1.80
2019-03-06T14:01:48.541Z,1.53
2019-03-06T14:04:18.042Z,1.40
2019-03-06T14:06:47.441Z,1.80
2019-03-06T14:09:16.882Z,1.50
2019-03-06T14:11:46.547Z,2.10
2019-03-06T14:14:16.123Z,1.60
2019-03-06T14:16:45.542Z,1.90
2019-03-06T14:19:15.172Z,1.90
2019-03-06T14:21:44.592Z,1.90
2019-03-06T14:24:14.399Z,2.37
2019-03-06T14:26:43.805Z,1.80
2019-03-06T14:29:13.317Z,1.90
2019-03-06T14:31:45.493Z,1.90
2019-03-06T14:34:18.561Z,1.70
2019-03-06T14:36:48.079Z,1.93
2019-03-06T14:39:35.632Z,1.97
2019-03-06T14:42:05.562Z,1.60
2019-03-06T14:44:35.138Z,1.73
2019-03-06T14:47:04.643Z,2.00
2019-03-06T14:49:34.377Z,1.80
2019-03-06T14:52:07.155Z,2.10
2019-03-06T14:54:35.113Z,1.87
2019-03-06T14:57:04.580Z,2.17
2019-03-06T14:59:34.020Z,1.80
2019-03-06T15:02:03.437Z,2.93
2019-03-06T15:04:32.876Z,3.03
2019-03-06T15:07:02.298Z,2.43
2019-03-06T15:09:31.756Z,2.00
2019-03-06T15:12:01.213Z,2.10
2019-03-06T15:14:36.091Z,1.97
2019-03-06T15:17:01.705Z,1.70
2019-03-06T15:19:31.144Z,2.47
2019-03-06T15:22:02.257Z,2.80
2019-03-06T15:24:40.723Z,2.30
2019-03-06T15:27:02.735Z,2.30
2019-03-06T15:29:32.309Z,2.10
2019-03-06T15:32:01.741Z,1.80
2019-03-06T15:34:31.169Z,1.80
2019-03-06T15:37:00.766Z,1.90
2019-03-06T15:39:32.075Z,2.60
2019-03-06T15:42:03.283Z,2.03
2019-03-06T15:44:33.130Z,1.90
2019-03-06T15:47:02.727Z,2.03
2019-03-06T15:49:32.162Z,2.43
2019-03-06T15:52:01.569Z,1.80
2019-03-06T15:54:31.026Z,1.97
2019-03-06T15:57:00.547Z,2.20
2019-03-06T15:59:29.995Z,2.90
2019-03-06T16:01:59.614Z,2.20
2019-03-06T16:04:29.054Z,1.87
2019-03-06T16:06:58.453Z,1.80
2019-03-06T16:09:27.925Z,2.07
2019-03-06T16:11:57.676Z,2.00
2019-03-06T16:14:27.149Z,1.73
2019-03-06T16:16:56.564Z,2.10
2019-03-06T16:19:26.001Z,2.60
2019-03-06T16:21:55.419Z,1.80
2019-03-06T16:24:24.885Z,1.90
2019-03-06T16:26:54.514Z,2.50
2019-03-06T16:29:23.960Z,2.10
2019-03-06T16:31:53.425Z,2.00
2019-03-06T16:34:24.672Z,2.43
2019-03-06T16:36:54.117Z,3.63
2019-03-06T16:39:23.847Z,6.03
2019-03-06T16:41:53.335Z,4.90
2019-03-06T16:44:22.837Z,4.33
2019-03-06T16:46:52.436Z,3.20
2019-03-06T16:49:21.864Z,3.00
2019-03-06T16:51:51.414Z,2.80
2019-03-06T16:54:21.433Z,2.83
2019-03-06T16:56:50.893Z,2.50
2019-03-06T16:59:20.339Z,2.50
2019-03-06T17:01:49.824Z,2.60
2019-03-06T17:04:19.368Z,2.77
2019-03-06T17:06:49.129Z,2.30
2019-03-06T17:09:18.952Z,2.07
2019-03-06T17:11:48.457Z,2.47
2019-03-06T17:14:17.956Z,2.13
2019-03-06T17:16:47.413Z,2.17
2019-03-06T17:19:16.814Z,2.80
2019-03-06T17:21:46.261Z,2.60
2019-03-06T17:24:15.671Z,2.50
2019-03-06T17:26:49.925Z,2.30
2019-03-06T17:29:19.384Z,3.43
2019-03-06T17:31:48.852Z,2.67
2019-03-06T17:34:18.425Z,2.50
2019-03-06T17:36:47.887Z,2.30
2019-03-06T17:39:17.916Z,2.57
2019-03-06T17:41:47.349Z,2.63
2019-03-06T17:44:16.889Z,2.63
2019-03-06T17:46:46.344Z,2.93
2019-03-06T17:49:15.965Z,2.60
2019-03-06T17:51:45.394Z,2.30
2019-03-06T17:54:14.803Z,3.20
2019-03-06T17:56:44.250Z,2.70
2019-03-06T17:59:13.768Z,3.20
2019-03-06T18:01:43.511Z,3.60
2019-03-06T18:04:15.719Z,3.00
2019-03-06T18:06:45.278Z,2.77
2019-03-06T18:09:14.910Z,3.63
2019-03-06T18:11:44.529Z,2.93
2019-03-06T18:14:14.173Z,3.07
2019-03-06T18:16:43.609Z,2.87
2019-03-06T18:19:13.062Z,3.57
2019-03-06T18:21:42.524Z,3.40
2019-03-06T18:24:11.928Z,2.73
2019-03-06T18:26:41.420Z,2.80
2019-03-06T18:29:10.828Z,3.87
2019-03-06T18:31:40.268Z,3.53
2019-03-06T18:34:10.347Z,3.00
2019-03-06T18:36:39.810Z,3.40
2019-03-06T18:39:18.909Z,3.47
2019-03-06T18:41:48.746Z,3.20
2019-03-06T18:44:18.190Z,3.07
2019-03-06T18:46:47.650Z,3.00
2019-03-06T18:49:17.052Z,3.47
2019-03-06T18:51:46.496Z,3.07
2019-03-06T18:54:15.889Z,3.57
2019-03-06T18:56:45.312Z,3.17
2019-03-06T18:59:14.745Z,3.40
2019-03-06T19:01:44.293Z,3.10
2019-03-06T19:04:13.822Z,3.17
2019-03-06T19:06:43.253Z,4.20
2019-03-06T19:09:12.679Z,3.00
2019-03-06T19:11:42.432Z,3.53
2019-03-06T19:14:11.856Z,3.30
2019-03-06T19:16:41.383Z,3.30
2019-03-06T19:19:10.807Z,3.37
2019-03-06T19:21:40.264Z,3.53
2019-03-06T19:24:09.712Z,3.40
2019-03-06T19:26:39.507Z,3.10
2019-03-06T19:29:08.964Z,3.67
2019-03-06T19:31:38.566Z,3.40
2019-03-06T19:34:07.938Z,3.60
2019-03-06T19:36:37.355Z,3.00
2019-03-06T19:39:07.465Z,4.10
2019-03-06T19:41:37.266Z,3.53
2019-03-06T19:44:06.815Z,4.00
2019-03-06T19:46:36.225Z,4.07
2019-03-06T19:49:05.792Z,3.50
2019-03-06T19:51:35.225Z,3.70
2019-03-06T19:54:04.791Z,3.30
2019-03-06T19:56:34.486Z,4.13
2019-03-06T19:59:03.938Z,3.27
2019-03-06T20:01:33.344Z,3.27
2019-03-06T20:04:02.803Z,3.43
2019-03-06T20:06:32.293Z,3.30
2019-03-06T20:09:01.739Z,4.40
2019-03-06T20:11:31.457Z,4.80
2019-03-06T20:14:00.950Z,6.23
2019-03-06T20:16:30.469Z,3.67
2019-03-06T20:18:59.902Z,3.67
2019-03-06T20:21:29.409Z,4.37
2019-03-06T20:23:59.094Z,6.37
2019-03-06T20:26:28.734Z,4.80
2019-03-06T20:28:58.326Z,3.73
2019-03-06T20:31:27.758Z,3.47
2019-03-06T20:33:57.190Z,3.43
2019-03-06T20:36:26.644Z,3.30
2019-03-06T20:38:56.101Z,3.50
2019-03-06T20:41:25.726Z,3.10
2019-03-06T20:43:55.176Z,3.43
2019-03-06T20:46:24.646Z,3.00
2019-03-06T20:48:54.090Z,3.10
2019-03-06T20:51:24.832Z,2.87
2019-03-06T20:53:54.306Z,3.90
2019-03-06T20:56:23.947Z,3.63
2019-03-06T20:58:53.465Z,3.27
2019-03-06T21:01:22.913Z,3.27
2019-03-06T21:03:52.472Z,3.17
2019-03-06T21:06:22.130Z,4.03
2019-03-06T21:08:51.578Z,4.40
2019-03-06T21:11:20.993Z,3.47
2019-03-06T21:13:50.608Z,3.60
2019-03-06T21:16:20.309Z,3.00
2019-03-06T21:18:49.747Z,3.60
2019-03-06T21:21:19.275Z,3.50
2019-03-06T21:23:48.734Z,3.40
2019-03-06T21:26:18.469Z,4.13
2019-03-06T21:28:47.911Z,4.97
2019-03-06T21:31:17.647Z,4.70
2019-03-06T21:33:47.130Z,4.60
2019-03-06T21:36:16.546Z,5.10
2019-03-06T21:38:45.993Z,5.90
2019-03-06T21:41:15.407Z,8.77
2019-03-06T21:43:44.976Z,6.80
2019-03-06T21:46:14.807Z,5.23
2019-03-06T21:48:44.269Z,5.83
2019-03-06T21:51:13.698Z,5.60
2019-03-06T21:53:44.586Z,5.80
2019-03-06T21:56:14.002Z,4.90
2019-03-06T21:58:43.464Z,4.90
2019-03-06T22:01:13.325Z,4.47
2019-03-06T22:03:42.782Z,4.13
2019-03-06T22:06:12.284Z,5.40
2019-03-06T22:08:41.704Z,5.47
2019-03-06T22:11:11.142Z,3.70
2019-03-06T22:13:40.603Z,3.53
2019-03-06T22:16:10.363Z,3.50
2019-03-06T22:18:39.756Z,3.03
2019-03-06T22:21:09.205Z,2.80
2019-03-06T22:23:38.616Z,2.63
2019-03-06T22:26:08.042Z,4.80
2019-03-06T22:28:37.449Z,3.23
2019-03-06T22:31:06.963Z,3.20
2019-03-06T22:33:36.373Z,3.23
2019-03-06T22:36:05.914Z,5.23
2019-03-06T22:38:35.386Z,2.50
2019-03-06T22:41:04.819Z,2.80
2019-03-06T22:43:34.226Z,3.07
2019-03-06T22:46:03.848Z,2.83
2019-03-06T22:48:33.253Z,2.83
2019-03-06T22:51:02.693Z,2.77
2019-03-06T22:53:32.348Z,4.13
2019-03-06T22:56:01.921Z,2.70
2019-03-06T22:58:31.553Z,2.40
2019-03-06T23:01:13.778Z,2.30
2019-03-06T23:03:43.273Z,2.70
2019-03-06T23:06:12.709Z,2.50
2019-03-06T23:08:42.109Z,2.30
2019-03-06T23:11:11.542Z,2.63
2019-03-06T23:13:40.989Z,2.73
2019-03-06T23:16:10.420Z,2.50
2019-03-06T23:18:40.073Z,2.97
2019-03-06T23:21:09.477Z,2.63
2019-03-06T23:23:39.114Z,2.77
2019-03-06T23:26:08.605Z,2.93
2019-03-06T23:28:38.005Z,2.20
2019-03-06T23:31:07.436Z,2.80
2019-03-06T23:33:36.849Z,3.23
2019-03-06T23:36:06.398Z,2.70
2019-03-06T23:38:36.104Z,2.43
2019-03-06T23:41:05.570Z,2.83
2019-03-06T23:43:34.994Z,2.00
2019-03-06T23:46:04.474Z,2.27
2019-03-06T23:48:33.904Z,2.20
2019-03-06T23:51:07.492Z,3.90
2019-03-06T23:53:55.892Z,1.90
2019-03-06T23:56:25.303Z,2.10
2019-03-06T23:58:54.732Z,2.50
